Time;durP1;ratioP1;P1;durP2;ratioP2;P2;SDS_P1;SDS_P2;PMS_P1;PMS_P2;Temp;Humidity;BMP_temperature;BMP_pressure;BME280_temperature;BME280_humidity;BME280_pressure;Samples;Min_cycle;Max_cycle;Signal;HPM_P1;HPM_P2
2022/04/22 00:07:21;;;;;;;68.50;39.40;;;;;;;7.28;80.27;98109.73;434122;1266;97926;-45
2022/04/22 00:17:28;;;;;;;73.00;42.00;;;;;;;7.41;80.37;98080.20;434345;1266;111298;-44
2022/04/22 00:27:35;;;;;;;63.20;37.70;;;;;;;7.47;80.30;98063.25;434205;1265;109255;-45
2022/04/22 00:37:46;;;;;;;70.40;39.40;;;;;;;7.39;80.20;98054.95;434377;1266;97938;-46
2022/04/22 00:47:54;;;;;;;70.20;41.60;;;;;;;7.55;80.71;98051.32;434206;1266;109734;-41
2022/04/22 00:58:02;;;;;;;92.00;48.40;;;;;;;7.60;80.57;98041.52;433962;1267;97910;-42
2022/04/22 01:18:32;;;;;;;69.20;40.60;;;;;;;7.44;80.70;98024.29;434116;1266;108784;-41
2022/04/22 01:28:39;;;;;;;70.60;40.70;;;;;;;7.44;80.70;98018.66;435002;1255;97484;-40
2022/04/22 01:38:47;;;;;;;67.70;39.90;;;;;;;7.48;80.59;98019.40;434294;1266;111102;-44
2022/04/22 01:48:54;;;;;;;72.90;39.60;;;;;;;7.58;80.93;98013.52;434290;1266;109669;-45
2022/04/22 01:59:01;;;;;;;66.50;39.60;;;;;;;7.75;81.10;98009.28;434192;1266;97496;-43
2022/04/22 02:09:08;;;;;;;66.60;39.70;;;;;;;7.69;80.87;98007.39;434317;1265;108838;-45
2022/04/22 02:19:16;;;;;;;89.10;49.70;;;;;;;7.73;81.04;98009.80;434134;1266;97920;-45
2022/04/22 02:29:23;;;;;;;93.20;49.50;;;;;;;7.61;80.96;98012.61;434202;1267;111074;-42
2022/04/22 02:39:31;;;;;;;68.30;41.30;;;;;;;7.53;80.91;98012.52;434333;1266;107016;-44
2022/04/22 02:49:38;;;;;;;68.00;42.30;;;;;;;7.54;80.88;98004.61;434266;1267;97728;-43
2022/04/22 02:59:46;;;;;;;65.20;40.60;;;;;;;7.61;81.09;97995.17;434311;1267;111336;-42
2022/04/22 03:09:53;;;;;;;62.60;39.60;;;;;;;7.72;81.26;97984.31;434254;1266;108806;-42
2022/04/22 03:20:00;;;;;;;67.20;40.10;;;;;;;7.81;81.28;97985.27;434270;1266;97925;-42
2022/04/22 03:30:09;;;;;;;62.20;37.50;;;;;;;7.80;80.99;97981.08;434284;1266;107806;-45
2022/04/22 03:40:16;;;;;;;68.90;42.60;;;;;;;7.69;81.14;97972.58;434340;1266;97891;-43
2022/04/22 03:50:23;;;;;;;76.00;41.90;;;;;;;7.79;81.42;97972.27;434315;1266;111154;-42
2022/04/22 04:00:32;;;;;;;76.80;44.30;;;;;;;7.79;81.17;97973.65;434221;1266;108856;-45
2022/04/22 04:31:31;;;;;;;91.70;48.40;;;;;;;7.47;81.87;97962.49;434185;1265;96665;-43
2022/04/22 04:41:38;;;;;;;88.10;46.30;;;;;;;7.42;82.06;97959.69;434217;1267;111085;-46
2022/04/22 04:51:45;;;;;;;96.60;45.40;;;;;;;7.34;82.77;97962.48;434188;1266;107433;-41
2022/04/22 05:01:52;;;;;;;87.40;46.10;;;;;;;7.37;83.14;97965.02;434368;1266;96643;-43
2022/04/22 05:11:59;;;;;;;97.10;48.30;;;;;;;7.37;83.50;97958.80;433749;1267;108949;-43
2022/04/22 05:22:06;;;;;;;90.50;43.60;;;;;;;7.39;84.22;97964.27;434240;1267;98015;-44
2022/04/22 05:52:45;;;;;;;49.50;28.30;;;;;;;7.61;84.88;97981.45;434429;1266;97928;-42
2022/04/22 06:02:53;;;;;;;47.80;26.40;;;;;;;7.65;85.17;97970.10;434244;1266;108388;-41
2022/04/22 06:13:02;;;;;;;37.90;20.90;;;;;;;7.87;85.10;97972.08;431857;1267;3243813;-44
2022/04/22 06:23:09;;;;;;;31.00;17.30;;;;;;;8.08;85.03;97976.11;434342;1267;111146;-45
2022/04/22 06:53:46;;;;;;;18.40;12.80;;;;;;;8.27;84.41;97982.95;434220;1267;110963;-42
2022/04/22 07:03:50;;;;;;;18.30;12.20;;;;;;;8.52;84.04;97976.67;434148;1267;108804;-42
2022/04/22 07:24:08;;;;;;;18.20;11.20;;;;;;;9.08;82.55;97977.88;434307;1266;108813;-46
2022/04/22 07:34:14;;;;;;;18.70;13.40;;;;;;;9.23;81.78;97979.52;434290;1268;97900;-43
2022/04/22 08:04:53;;;;;;;20.40;13.50;;;;;;;9.36;80.09;97997.41;434232;1267;97904;-41
2022/04/22 08:15:00;;;;;;;15.70;11.90;;;;;;;9.26;79.47;98007.37;434200;1267;110900;-45
2022/04/22 08:25:09;;;;;;;16.00;11.40;;;;;;;9.28;79.47;98008.75;434362;1266;108840;-41
2022/04/22 08:35:16;;;;;;;13.20;11.20;;;;;;;9.36;79.27;98020.23;434218;1267;97514;-46
2022/04/22 08:55:36;;;;;;;13.40;9.80;;;;;;;9.51;78.98;98006.41;434195;1267;97916;-43
2022/04/22 09:05:45;;;;;;;17.20;13.40;;;;;;;9.52;78.70;98006.31;434145;1266;111106;-42
2022/04/22 09:15:51;;;;;;;15.60;10.40;;;;;;;9.65;78.46;98006.37;434145;1267;107816;-44
2022/04/22 09:47:09;;;;;;;18.70;12.80;;;;;;;9.49;77.91;98001.14;434401;1265;97939;-42
2022/04/22 09:57:24;;;;;;;22.60;14.30;;;;;;;9.52;77.89;98001.08;434272;1266;111691;-42
2022/04/22 10:17:37;;;;;;;21.50;15.20;;;;;;;9.65;78.12;97991.38;434309;1267;97474;-48
2022/04/22 10:27:46;;;;;;;25.20;15.60;;;;;;;9.78;77.78;97987.90;434353;1267;111107;-43
2022/04/22 10:37:54;;;;;;;22.70;17.00;;;;;;;9.74;77.57;97978.59;434387;1268;108996;-42
2022/04/22 10:48:00;;;;;;;24.60;16.50;;;;;;;9.72;77.64;97976.61;434176;1266;97975;-41
2022/04/22 10:58:26;;;;;;;21.30;14.60;;;;;;;9.72;77.36;97974.02;434226;1268;111123;-44
2022/04/22 11:08:31;;;;;;;22.50;15.80;;;;;;;10.01;76.86;97979.91;434310;1267;107049;-43
2022/04/22 11:28:47;;;;;;;20.20;13.00;;;;;;;9.69;76.56;97982.46;434249;1268;107223;-43
2022/04/22 11:38:56;;;;;;;19.40;13.60;;;;;;;9.52;76.97;97989.05;434459;1268;98015;-44
2022/04/22 11:49:09;;;;;;;13.50;9.50;;;;;;;9.21;77.21;98000.12;434264;1268;111783;-46
2022/04/22 11:59:19;;;;;;;15.70;10.50;;;;;;;8.82;78.04;98017.00;434124;1267;106974;-41
2022/04/22 12:09:26;;;;;;;15.70;8.90;;;;;;;8.62;78.59;98023.88;434367;1266;96676;-41
2022/04/22 12:19:34;;;;;;;13.60;7.40;;;;;;;8.40;79.39;98023.30;434282;1268;108969;-45
2022/04/22 12:29:42;;;;;;;9.70;7.00;;;;;;;8.44;79.67;98015.27;434348;1268;97900;-44
2022/04/22 12:39:50;;;;;;;12.00;6.20;;;;;;;8.51;79.74;98009.27;434150;1267;111161;-45
2022/04/22 13:00:35;;;;;;;4.70;3.80;;;;;;;8.41;79.89;98008.16;434283;1267;97910;-44
2022/04/22 13:10:45;;;;;;;5.20;4.60;;;;;;;8.40;80.39;98005.18;434345;1266;108811;-42
2022/04/22 13:20:52;;;;;;;5.30;4.80;;;;;;;8.67;80.30;97993.89;434277;1267;97904;-43
2022/04/22 13:31:00;;;;;;;5.90;4.50;;;;;;;8.99;79.43;97981.33;434176;1267;111048;-46
2022/04/22 13:41:08;;;;;;;5.10;3.90;;;;;;;9.00;78.29;97977.09;434288;1266;107744;-41
2022/04/22 14:01:40;;;;;;;5.00;4.50;;;;;;;8.88;76.83;97974.48;434172;1268;111120;-41
2022/04/22 14:11:47;;;;;;;5.30;4.60;;;;;;;8.63;76.33;97993.33;434294;1268;108730;-41
2022/04/22 14:21:55;;;;;;;7.00;5.20;;;;;;;8.43;76.44;97992.70;434218;1267;97543;-45
2022/04/22 14:32:03;;;;;;;6.30;5.50;;;;;;;8.39;76.26;97992.36;434289;1267;108868;-47
2022/04/22 14:42:11;;;;;;;14.70;7.50;;;;;;;8.42;76.49;97997.20;434214;1265;97934;-43
2022/04/22 15:02:24;;;;;;;13.70;8.80;;;;;;;8.37;75.32;97993.30;434269;1266;109125;-45
2022/04/22 15:12:32;;;;;;;13.40;9.60;;;;;;;8.50;74.57;97993.23;434234;1266;96669;-42
2022/04/22 15:33:01;;;;;;;12.00;8.70;;;;;;;9.08;72.89;97973.60;434322;1266;97917;-43
2022/04/22 15:43:10;;;;;;;12.30;9.10;;;;;;;9.03;71.17;97969.33;434173;1267;110645;-45
2022/04/22 15:53:18;;;;;;;14.20;10.40;;;;;;;8.91;69.96;97973.33;434285;1267;108784;-41
2022/04/22 16:03:27;;;;;;;12.80;10.20;;;;;;;8.87;70.05;97969.19;434215;1266;97940;-44
2022/04/22 16:34:06;;;;;;;13.60;9.80;;;;;;;8.72;69.97;97974.90;434423;1267;97745;-44
2022/04/22 16:54:21;;;;;;;14.90;12.40;;;;;;;8.50;70.38;97980.27;434384;1265;97372;-44
2022/04/22 17:04:27;;;;;;;17.30;12.00;;;;;;;8.42;70.34;97975.45;434350;1266;110204;-40
2022/04/22 17:25:00;;;;;;;18.50;14.20;;;;;;;8.20;70.98;97976.02;434284;1266;96684;-41
2022/04/22 17:35:09;;;;;;;23.70;14.90;;;;;;;8.03;71.12;97979.73;434328;1267;108820;-46
2022/04/22 17:45:17;;;;;;;20.10;14.20;;;;;;;7.94;71.17;97985.95;434261;1267;96606;-45
2022/04/22 17:55:24;;;;;;;24.00;14.40;;;;;;;7.92;71.43;97987.91;434131;1267;111022;-44
2022/04/22 18:05:31;;;;;;;25.60;16.50;;;;;;;7.81;71.72;97998.86;434234;1267;108482;-45
2022/04/22 18:36:11;;;;;;;17.10;11.50;;;;;;;7.56;71.62;98007.91;434134;1266;98021;-46
2022/04/22 18:46:17;;;;;;;19.80;12.10;;;;;;;7.41;70.89;98003.48;434306;1266;110214;-44
2022/04/22 19:06:31;;;;;;;13.90;11.20;;;;;;;6.94;70.04;97993.08;434219;1266;108435;-41
2022/04/22 19:16:38;;;;;;;23.60;13.60;;;;;;;6.74;70.34;97988.71;434275;1266;97949;-42
2022/04/22 19:26:45;;;;;;;25.80;16.50;;;;;;;6.46;70.29;97990.88;434202;1266;111118;-41
2022/04/22 19:47:17;;;;;;;26.30;15.00;;;;;;;5.97;70.61;97987.50;434130;1267;108997;-41
2022/04/22 19:57:24;;;;;;;21.00;13.00;;;;;;;5.82;70.71;97983.83;434229;1266;97900;-43
2022/04/22 20:07:32;;;;;;;32.10;18.30;;;;;;;5.72;71.14;97976.98;434357;1266;108926;-41
2022/04/22 20:17:39;;;;;;;39.30;20.50;;;;;;;5.54;71.17;97976.63;434117;1267;97487;-45
2022/04/22 20:48:17;;;;;;;35.80;20.30;;;;;;;4.63;71.49;97984.91;434162;1266;106620;-45
2022/04/22 21:08:32;;;;;;;35.40;18.70;;;;;;;4.44;71.95;97983.71;434355;1266;108751;-44
2022/04/22 21:18:39;;;;;;;41.90;23.50;;;;;;;4.41;72.23;97979.41;434212;1265;96674;-43
2022/04/22 21:28:47;;;;;;;42.80;22.30;;;;;;;4.27;72.28;97982.48;434207;1266;111712;-44
2022/04/22 21:38:55;;;;;;;38.30;20.00;;;;;;;4.09;72.35;97980.95;434431;1265;108948;-41
2022/04/22 21:59:08;;;;;;;24.10;13.50;;;;;;;3.80;72.57;97975.17;434155;1265;96612;-45
2022/04/22 22:09:15;;;;;;;30.50;15.20;;;;;;;3.76;72.59;97971.52;434138;1267;108547;-44
2022/04/22 22:19:23;;;;;;;32.30;18.40;;;;;;;3.53;72.63;97974.58;434234;1266;97853;-43
2022/04/22 22:29:31;;;;;;;30.60;18.90;;;;;;;3.16;72.91;97975.77;434283;1267;97927;-45
2022/04/22 22:39:38;;;;;;;40.00;22.40;;;;;;;2.61;72.75;97978.11;434283;1267;110975;-40
2022/04/22 22:49:46;;;;;;;37.80;19.30;;;;;;;2.07;72.74;97973.80;434197;1267;108747;-42
2022/04/22 22:59:53;;;;;;;34.80;19.40;;;;;;;1.78;73.06;97964.23;434226;1266;97903;-42
2022/04/22 23:10:00;;;;;;;33.80;19.90;;;;;;;1.67;73.58;97956.66;434244;1265;111095;-44
2022/04/22 23:20:07;;;;;;;91.90;38.60;;;;;;;1.44;73.57;97942.80;434195;1267;108946;-43
2022/04/22 23:30:12;;;;;;;125.60;55.00;;;;;;;1.32;74.07;97937.48;434279;1267;97923;-41
2022/04/22 23:40:20;;;;;;;105.50;51.10;;;;;;;1.10;74.15;97927.88;434361;1266;97654;-44
2022/04/22 23:50:27;;;;;;;103.00;49.30;;;;;;;0.93;74.56;97919.23;434229;1267;108787;-41
